createdAt,value
2023-02-21T00:02:39.737Z,19.51
2023-02-21T00:05:24.683Z,19.50
2023-02-21T00:08:09.907Z,19.51
2023-02-21T00:10:54.847Z,19.49
2023-02-21T00:13:39.959Z,19.50
2023-02-21T00:16:24.924Z,19.50
2023-02-21T00:19:09.961Z,19.49
2023-02-21T00:21:54.746Z,19.48
2023-02-21T00:24:39.683Z,19.48
2023-02-21T00:27:24.632Z,19.48
2023-02-21T00:30:10.146Z,19.48
2023-02-21T00:32:55.446Z,19.47
2023-02-21T00:35:40.746Z,19.48
2023-02-21T00:38:26.675Z,19.47
2023-02-21T00:41:11.854Z,19.47
2023-02-21T00:43:57.184Z,19.48
2023-02-21T00:46:42.252Z,19.49
2023-02-21T00:49:27.157Z,19.51
2023-02-21T00:52:12.148Z,19.52
2023-02-21T00:54:56.982Z,19.53
2023-02-21T00:57:42.422Z,19.53
2023-02-21T01:00:29.554Z,19.54
2023-02-21T01:03:14.448Z,19.53
2023-02-21T01:05:59.575Z,19.55
2023-02-21T01:08:44.421Z,19.55
2023-02-21T01:11:33.323Z,19.55
2023-02-21T01:14:18.329Z,19.56
2023-02-21T01:17:12.492Z,19.56
2023-02-21T01:19:58.714Z,19.57
2023-02-21T01:22:43.673Z,19.57
2023-02-21T01:25:28.664Z,19.58
2023-02-21T01:28:14.180Z,19.58
2023-02-21T01:30:59.169Z,19.57
2023-02-21T01:33:44.398Z,19.58
2023-02-21T01:36:29.851Z,19.57
2023-02-21T01:39:14.978Z,19.58
2023-02-21T01:42:00.660Z,19.60
2023-02-21T01:44:47.812Z,19.58
2023-02-21T01:47:33.171Z,19.58
2023-02-21T01:50:20.046Z,19.59
2023-02-21T01:53:07.070Z,19.58
2023-02-21T01:55:53.127Z,19.59
2023-02-21T01:58:40.015Z,19.59
2023-02-21T02:01:26.129Z,19.61
2023-02-21T02:04:11.045Z,19.58
2023-02-21T02:06:56.201Z,19.58
2023-02-21T02:09:41.522Z,19.58
2023-02-21T02:12:26.006Z,19.58
2023-02-21T02:15:06.936Z,19.60
2023-02-21T02:17:45.346Z,19.60
2023-02-21T02:20:30.590Z,19.59
2023-02-21T02:22:57.044Z,19.61
2023-02-21T02:25:32.634Z,19.62
2023-02-21T02:28:16.032Z,19.61
2023-02-21T02:31:01.210Z,19.62
2023-02-21T02:33:35.692Z,19.62
2023-02-21T02:36:05.056Z,19.61
2023-02-21T02:38:41.597Z,19.62
2023-02-21T02:41:30.972Z,19.62
2023-02-21T02:44:10.224Z,19.64
2023-02-21T02:46:38.354Z,19.63
2023-02-21T02:49:10.513Z,19.65
2023-02-21T02:51:37.042Z,19.65
2023-02-21T02:54:03.686Z,19.66
2023-02-21T02:56:30.442Z,19.66
2023-02-21T02:59:00.852Z,19.66
2023-02-21T03:01:46.003Z,19.66
2023-02-21T03:04:12.552Z,19.67
2023-02-21T03:06:42.029Z,19.68
2023-02-21T03:09:08.384Z,19.67
2023-02-21T03:11:38.918Z,19.67
2023-02-21T03:14:08.222Z,19.69
2023-02-21T03:16:44.148Z,19.70
2023-02-21T03:19:12.633Z,19.70
2023-02-21T03:21:43.602Z,19.69
2023-02-21T03:24:11.662Z,19.71
2023-02-21T03:26:40.800Z,19.71
2023-02-21T03:29:07.467Z,19.70
2023-02-21T03:31:37.616Z,19.71
2023-02-21T03:34:04.185Z,19.72
2023-02-21T03:36:31.187Z,19.73
2023-02-21T03:38:57.722Z,19.74
2023-02-21T03:41:24.271Z,19.74
2023-02-21T03:43:50.742Z,19.74
2023-02-21T03:46:17.391Z,19.75
2023-02-21T03:48:44.665Z,19.76
2023-02-21T03:51:11.132Z,19.76
2023-02-21T03:53:37.829Z,19.75
2023-02-21T03:56:04.568Z,19.76
2023-02-21T03:58:30.971Z,19.75
2023-02-21T04:00:57.758Z,19.74
2023-02-21T04:03:24.251Z,19.74
2023-02-21T04:05:51.002Z,19.75
2023-02-21T04:08:17.674Z,19.77
2023-02-21T04:10:54.132Z,19.80
2023-02-21T04:13:20.605Z,19.81
2023-02-21T04:15:47.053Z,19.82
2023-02-21T04:18:13.640Z,19.83
2023-02-21T04:20:40.059Z,19.84
2023-02-21T04:23:06.549Z,19.83
2023-02-21T04:25:33.054Z,19.82
2023-02-21T04:27:59.511Z,19.83
2023-02-21T04:30:25.983Z,19.84
2023-02-21T04:32:52.626Z,19.86
2023-02-21T04:35:19.076Z,19.85
2023-02-21T04:37:45.887Z,19.85
2023-02-21T04:40:12.530Z,19.84
2023-02-21T04:42:39.014Z,19.85
2023-02-21T04:45:05.588Z,19.85
2023-02-21T04:47:31.968Z,19.85
2023-02-21T04:49:58.710Z,19.84
2023-02-21T04:52:25.188Z,19.85
2023-02-21T04:54:51.759Z,19.84
2023-02-21T04:57:18.180Z,19.83
2023-02-21T04:59:44.618Z,19.83
2023-02-21T05:02:11.175Z,19.83
2023-02-21T05:04:37.785Z,19.83
2023-02-21T05:07:04.941Z,19.82
2023-02-21T05:09:31.756Z,19.83
2023-02-21T05:11:58.217Z,19.84
2023-02-21T05:14:24.608Z,19.83
2023-02-21T05:16:51.070Z,19.83
2023-02-21T05:19:27.250Z,19.84
2023-02-21T05:21:58.396Z,19.82
2023-02-21T05:24:25.436Z,19.83
2023-02-21T05:26:52.153Z,19.84
2023-02-21T05:29:18.967Z,19.83
2023-02-21T05:31:45.716Z,19.84
2023-02-21T05:34:12.607Z,19.83
2023-02-21T05:36:40.461Z,19.85
2023-02-21T05:39:08.322Z,19.83
2023-02-21T05:41:35.832Z,19.84
2023-02-21T05:44:03.134Z,19.81
2023-02-21T05:46:30.923Z,19.81
2023-02-21T05:48:57.803Z,19.79
2023-02-21T05:51:24.652Z,19.79
2023-02-21T05:53:51.349Z,19.80
2023-02-21T05:56:18.179Z,19.79
2023-02-21T05:58:44.758Z,19.80
2023-02-21T06:01:11.166Z,19.82
2023-02-21T06:03:37.769Z,19.83
2023-02-21T06:06:04.269Z,19.82
2023-02-21T06:08:30.805Z,19.82
2023-02-21T06:10:57.232Z,19.84
2023-02-21T06:13:23.751Z,19.86
2023-02-21T06:15:50.358Z,19.86
2023-02-21T06:18:16.799Z,19.86
2023-02-21T06:20:43.797Z,19.86
2023-02-21T06:23:10.367Z,19.88
2023-02-21T06:25:36.825Z,19.89
2023-02-21T06:28:03.334Z,19.90
2023-02-21T06:30:29.784Z,19.89
2023-02-21T06:32:56.406Z,19.91
2023-02-21T06:35:22.786Z,19.92
2023-02-21T06:37:49.201Z,19.91
2023-02-21T06:40:15.745Z,19.91
2023-02-21T06:42:42.135Z,19.93
2023-02-21T06:45:08.934Z,19.92
2023-02-21T06:47:35.448Z,19.94
2023-02-21T06:50:01.882Z,19.97
2023-02-21T06:52:28.413Z,19.96
2023-02-21T06:54:54.940Z,19.97
2023-02-21T06:57:21.468Z,19.97
2023-02-21T06:59:48.035Z,19.99
2023-02-21T07:02:18.427Z,19.99
2023-02-21T07:04:47.951Z,20.01
2023-02-21T07:07:14.657Z,20.05
2023-02-21T07:09:41.077Z,20.07
2023-02-21T07:12:08.756Z,20.10
2023-02-21T07:14:35.298Z,20.13
2023-02-21T07:17:01.836Z,20.14
2023-02-21T07:19:28.334Z,20.16
2023-02-21T07:21:54.912Z,20.18
2023-02-21T07:24:21.432Z,20.19
2023-02-21T07:26:48.530Z,20.19
2023-02-21T07:29:15.018Z,20.19
2023-02-21T07:31:41.525Z,20.21
2023-02-21T07:34:08.690Z,20.21
2023-02-21T07:36:38.952Z,20.21
2023-02-21T07:39:06.496Z,20.22
2023-02-21T07:41:32.951Z,20.22
2023-02-21T07:43:59.417Z,20.21
2023-02-21T07:46:27.356Z,20.22
2023-02-21T07:48:54.144Z,20.22
2023-02-21T07:51:20.795Z,20.24
2023-02-21T07:53:47.186Z,20.24
2023-02-21T07:56:13.798Z,20.24
2023-02-21T07:58:40.192Z,20.25
2023-02-21T08:01:06.903Z,20.25
2023-02-21T08:03:33.409Z,20.25
2023-02-21T08:06:00.063Z,20.27
2023-02-21T08:08:26.687Z,20.27
2023-02-21T08:10:53.073Z,20.28
2023-02-21T08:13:19.573Z,20.28
2023-02-21T08:15:46.041Z,20.30
2023-02-21T08:18:20.804Z,20.29
2023-02-21T08:20:47.450Z,20.30
2023-02-21T08:23:13.849Z,20.31
2023-02-21T08:25:40.276Z,20.31
2023-02-21T08:28:06.707Z,20.31
2023-02-21T08:30:33.254Z,20.31
2023-02-21T08:32:59.703Z,20.33
2023-02-21T08:35:26.126Z,20.33
2023-02-21T08:37:56.683Z,20.34
2023-02-21T08:40:24.058Z,20.35
2023-02-21T08:42:51.406Z,20.36
2023-02-21T08:45:19.298Z,20.36
2023-02-21T08:47:46.612Z,20.37
2023-02-21T08:50:13.613Z,20.37
2023-02-21T08:52:40.151Z,20.38
2023-02-21T08:55:07.498Z,20.39
2023-02-21T08:57:34.749Z,20.39
2023-02-21T09:00:01.357Z,20.39
2023-02-21T09:02:32.818Z,20.39
2023-02-21T09:04:59.683Z,20.42
2023-02-21T09:07:26.224Z,20.42
2023-02-21T09:09:52.620Z,20.42
2023-02-21T09:12:19.009Z,20.44
2023-02-21T09:14:45.456Z,20.44
2023-02-21T09:17:13.184Z,20.45
2023-02-21T09:19:39.998Z,20.44
2023-02-21T09:22:10.202Z,20.45
2023-02-21T09:24:37.362Z,20.45
2023-02-21T09:27:04.330Z,20.45
2023-02-21T09:29:44.993Z,20.46
2023-02-21T09:32:14.217Z,20.43
2023-02-21T09:34:40.774Z,20.45
2023-02-21T09:37:07.358Z,20.44
2023-02-21T09:39:33.962Z,20.45
2023-02-21T09:42:00.671Z,20.44
2023-02-21T09:44:27.898Z,20.45
2023-02-21T09:47:00.198Z,20.45
2023-02-21T09:49:45.480Z,20.45
2023-02-21T09:52:25.575Z,20.44
2023-02-21T09:54:56.369Z,20.43
2023-02-21T09:57:23.042Z,20.43
2023-02-21T09:59:49.938Z,20.44
2023-02-21T10:02:30.079Z,20.44
2023-02-21T10:05:19.649Z,20.44
2023-02-21T10:07:49.829Z,20.45
2023-02-21T10:10:25.837Z,20.44
2023-02-21T10:13:01.350Z,20.43
2023-02-21T10:15:37.274Z,20.43
2023-02-21T10:18:07.923Z,20.44
2023-02-21T10:20:54.792Z,20.43
2023-02-21T10:23:27.343Z,20.43
2023-02-21T10:25:58.481Z,20.44
2023-02-21T10:28:25.823Z,20.43
2023-02-21T10:30:55.228Z,20.42
2023-02-21T10:33:21.824Z,20.42
2023-02-21T10:35:48.260Z,20.44
2023-02-21T10:38:19.023Z,20.42
2023-02-21T10:40:47.032Z,20.42
2023-02-21T10:43:19.758Z,20.38
2023-02-21T10:45:53.991Z,20.43
2023-02-21T10:48:21.546Z,20.43
2023-02-21T10:50:57.370Z,20.43
2023-02-21T10:53:35.584Z,20.41
2023-02-21T10:56:20.519Z,20.41
2023-02-21T10:58:53.044Z,20.41
2023-02-21T11:01:21.386Z,20.40
2023-02-21T11:03:52.304Z,20.40
2023-02-21T11:06:28.132Z,20.40
2023-02-21T11:08:54.898Z,20.41
2023-02-21T11:11:37.144Z,20.40
2023-02-21T11:14:24.493Z,20.41
2023-02-21T11:17:06.756Z,20.40
2023-02-21T11:19:47.944Z,20.42
2023-02-21T11:22:15.537Z,20.41
2023-02-21T11:25:05.398Z,20.41
2023-02-21T11:27:33.932Z,20.42
2023-02-21T11:30:02.740Z,20.42
2023-02-21T11:32:38.818Z,20.44
2023-02-21T11:35:08.167Z,20.44
2023-02-21T11:37:46.501Z,20.44
2023-02-21T11:40:22.833Z,20.44
2023-02-21T11:42:49.421Z,20.44
2023-02-21T11:45:15.868Z,20.45
2023-02-21T11:47:48.717Z,20.44
2023-02-21T11:50:21.320Z,20.45
2023-02-21T11:52:50.843Z,20.44
2023-02-21T11:55:19.609Z,20.45
2023-02-21T11:57:57.988Z,20.45
2023-02-21T12:00:44.070Z,20.44
2023-02-21T12:03:19.674Z,20.44
2023-02-21T12:05:58.430Z,20.43
2023-02-21T12:08:24.835Z,20.44
2023-02-21T12:10:54.330Z,20.44
2023-02-21T12:13:20.838Z,20.45
2023-02-21T12:15:50.132Z,20.44
2023-02-21T12:18:26.569Z,20.44
2023-02-21T12:20:59.224Z,20.43
2023-02-21T12:23:34.099Z,20.43
2023-02-21T12:26:22.219Z,20.43
2023-02-21T12:28:48.661Z,20.43
2023-02-21T12:31:41.621Z,20.42
2023-02-21T12:34:21.976Z,20.41
2023-02-21T12:36:51.511Z,20.43
2023-02-21T12:39:23.831Z,20.40
2023-02-21T12:41:50.300Z,20.39
2023-02-21T12:44:22.052Z,20.41
2023-02-21T12:46:56.604Z,20.40
2023-02-21T12:49:43.290Z,20.39
2023-02-21T12:52:15.793Z,20.42
2023-02-21T12:54:49.032Z,20.40
2023-02-21T12:57:23.304Z,20.40
2023-02-21T12:59:49.662Z,20.40
2023-02-21T13:02:22.614Z,20.40
2023-02-21T13:04:57.216Z,20.41
2023-02-21T13:07:39.420Z,20.40
2023-02-21T13:10:07.584Z,20.40
2023-02-21T13:12:56.843Z,20.42
2023-02-21T13:15:25.493Z,20.42
2023-02-21T13:18:01.316Z,20.42
2023-02-21T13:20:31.129Z,20.43
2023-02-21T13:23:35.249Z,20.43
2023-02-21T13:26:01.796Z,20.43
2023-02-21T13:28:30.114Z,20.44
2023-02-21T13:31:01.586Z,20.41
2023-02-21T13:33:35.281Z,20.42
2023-02-21T13:36:02.170Z,20.43
2023-02-21T13:38:30.714Z,20.42
2023-02-21T13:41:03.296Z,20.42
2023-02-21T13:43:31.478Z,20.41
2023-02-21T13:46:21.302Z,20.42
2023-02-21T13:49:07.662Z,20.40
2023-02-21T13:51:53.049Z,20.40
2023-02-21T13:54:23.572Z,20.39
2023-02-21T13:56:51.343Z,20.39
2023-02-21T13:59:23.994Z,20.39
2023-02-21T14:01:50.733Z,20.39
2023-02-21T14:04:36.049Z,20.39
2023-02-21T14:07:02.585Z,20.39
2023-02-21T14:09:34.646Z,20.38
2023-02-21T14:12:02.945Z,20.37
2023-02-21T14:14:30.842Z,20.39
2023-02-21T14:17:06.044Z,20.38
2023-02-21T14:19:41.400Z,20.37
2023-02-21T14:22:16.178Z,20.39
2023-02-21T14:24:44.705Z,20.38
2023-02-21T14:29:43.741Z,20.39
2023-02-21T14:32:10.297Z,20.38
2023-02-21T14:34:42.630Z,20.37
2023-02-21T14:37:19.499Z,20.36
2023-02-21T14:39:51.784Z,20.37
2023-02-21T14:42:36.829Z,20.33
2023-02-21T14:45:03.242Z,20.36
2023-02-21T14:47:49.643Z,20.35
2023-02-21T14:50:25.630Z,20.36
2023-02-21T14:53:01.818Z,20.35
2023-02-21T14:55:31.270Z,20.36
2023-02-21T14:58:21.399Z,20.35
2023-02-21T15:01:10.845Z,20.35
2023-02-21T15:03:43.426Z,20.34
2023-02-21T15:06:12.848Z,20.35
2023-02-21T15:08:40.831Z,20.34
2023-02-21T15:11:16.435Z,20.33
2023-02-21T15:13:43.476Z,20.33
2023-02-21T15:16:12.295Z,20.32
2023-02-21T15:18:42.497Z,20.33
2023-02-21T15:21:11.750Z,20.33
2023-02-21T15:23:43.007Z,20.32
2023-02-21T15:26:23.250Z,20.31
2023-02-21T15:29:05.000Z,20.31
2023-02-21T15:31:36.505Z,20.31
2023-02-21T15:34:03.069Z,20.30
2023-02-21T15:36:30.347Z,20.30
2023-02-21T15:39:22.858Z,20.31
2023-02-21T15:41:50.704Z,20.30
2023-02-21T15:44:20.849Z,20.29
2023-02-21T15:46:49.346Z,20.30
2023-02-21T15:49:22.273Z,20.30
2023-02-21T15:51:51.335Z,20.30
2023-02-21T15:54:17.931Z,20.30
2023-02-21T15:56:45.045Z,20.29
2023-02-21T15:59:19.279Z,20.28
2023-02-21T16:01:45.730Z,20.29
2023-02-21T16:04:17.166Z,20.29
2023-02-21T16:06:48.845Z,20.28
2023-02-21T16:09:15.295Z,20.28
2023-02-21T16:11:53.065Z,20.28
2023-02-21T16:14:30.937Z,20.27
2023-02-21T16:17:08.030Z,20.27
2023-02-21T16:19:34.510Z,20.27
2023-02-21T16:22:43.098Z,20.27
2023-02-21T16:25:21.948Z,20.26
2023-02-21T16:27:49.770Z,20.26
2023-02-21T16:30:35.540Z,20.26
2023-02-21T16:33:03.526Z,20.27
2023-02-21T16:35:30.567Z,20.26
2023-02-21T16:37:58.640Z,20.26
2023-02-21T16:40:26.645Z,20.25
2023-02-21T16:42:53.866Z,20.25
2023-02-21T16:45:20.740Z,20.25
2023-02-21T16:47:55.079Z,20.26
2023-02-21T16:50:23.181Z,20.25
2023-02-21T16:52:49.634Z,20.25
2023-02-21T16:55:17.723Z,20.24
2023-02-21T16:57:49.065Z,20.24
2023-02-21T17:00:16.695Z,20.23
2023-02-21T17:02:43.252Z,20.23
2023-02-21T17:05:09.839Z,20.23
2023-02-21T17:07:36.271Z,20.24
2023-02-21T17:10:02.737Z,20.24
2023-02-21T17:12:29.235Z,20.22
2023-02-21T17:14:55.846Z,20.23
2023-02-21T17:17:22.367Z,20.22
2023-02-21T17:19:48.784Z,20.22
2023-02-21T17:22:15.302Z,20.22
2023-02-21T17:24:42.130Z,20.21
2023-02-21T17:27:09.009Z,20.21
2023-02-21T17:29:35.495Z,20.21
2023-02-21T17:32:07.086Z,20.21
2023-02-21T17:34:34.270Z,20.22
2023-02-21T17:37:00.980Z,20.21
2023-02-21T17:39:27.489Z,20.20
2023-02-21T17:41:53.958Z,20.20
2023-02-21T17:44:20.845Z,20.20
2023-02-21T17:46:48.411Z,20.20
2023-02-21T17:49:19.265Z,20.21
2023-02-21T17:51:47.152Z,20.19
2023-02-21T17:54:14.332Z,20.18
2023-02-21T17:56:40.961Z,20.19
2023-02-21T17:59:07.485Z,20.20
2023-02-21T18:01:34.069Z,20.19
2023-02-21T18:04:01.303Z,20.18
2023-02-21T18:06:28.659Z,20.19
2023-02-21T18:08:55.687Z,20.17
2023-02-21T18:11:24.139Z,20.18
2023-02-21T18:13:51.105Z,20.18
2023-02-21T18:16:17.797Z,20.17
2023-02-21T18:18:45.183Z,20.18
2023-02-21T18:21:11.713Z,20.18
2023-02-21T18:23:38.163Z,20.17
2023-02-21T18:26:05.045Z,20.17
2023-02-21T18:28:31.707Z,20.16
2023-02-21T18:30:58.250Z,20.17
2023-02-21T18:33:27.209Z,20.17
2023-02-21T18:35:54.550Z,20.17
2023-02-21T18:38:21.341Z,20.16
2023-02-21T18:40:48.305Z,20.16
2023-02-21T18:43:19.911Z,20.15
2023-02-21T18:45:47.900Z,20.15
2023-02-21T18:48:14.699Z,20.14
2023-02-21T18:50:41.326Z,20.17
2023-02-21T18:53:07.942Z,20.16
2023-02-21T18:55:35.039Z,20.16
2023-02-21T18:58:01.970Z,20.15
2023-02-21T19:00:29.174Z,20.15
2023-02-21T19:02:55.907Z,20.15
2023-02-21T19:05:23.838Z,20.15
2023-02-21T19:07:51.764Z,20.14
2023-02-21T19:10:22.030Z,20.15
2023-02-21T19:12:49.335Z,20.15
2023-02-21T19:15:16.473Z,20.15
2023-02-21T19:17:43.497Z,20.15
2023-02-21T19:20:11.149Z,20.13
2023-02-21T19:22:37.791Z,20.15
2023-02-21T19:25:05.039Z,20.13
2023-02-21T19:27:31.864Z,20.14
2023-02-21T19:29:58.419Z,20.14
2023-02-21T19:32:25.298Z,20.13
2023-02-21T19:34:51.981Z,20.14
2023-02-21T19:37:18.847Z,20.14
2023-02-21T19:39:45.259Z,20.13
2023-02-21T19:42:12.020Z,20.13
2023-02-21T19:44:38.606Z,20.13
2023-02-21T19:47:05.128Z,20.15
2023-02-21T19:49:31.656Z,20.13
2023-02-21T19:51:58.934Z,20.14
2023-02-21T19:54:29.888Z,20.13
2023-02-21T19:56:59.228Z,20.13
2023-02-21T19:59:27.002Z,20.13
2023-02-21T20:01:55.427Z,20.15
2023-02-21T20:04:22.817Z,20.14
2023-02-21T20:06:50.385Z,20.14
2023-02-21T20:09:16.895Z,20.14
2023-02-21T20:11:43.346Z,20.12
2023-02-21T20:14:11.057Z,20.13
2023-02-21T20:16:39.036Z,20.13
2023-02-21T20:19:05.606Z,20.13
2023-02-21T20:21:32.151Z,20.13
2023-02-21T20:23:59.954Z,20.12
2023-02-21T20:26:26.443Z,20.12
2023-02-21T20:28:53.571Z,20.12
2023-02-21T20:31:21.143Z,20.13
2023-02-21T20:33:47.876Z,20.12
2023-02-21T20:36:14.921Z,20.12
2023-02-21T20:38:41.548Z,20.12
2023-02-21T20:41:13.819Z,20.11
2023-02-21T20:43:40.856Z,20.12
2023-02-21T20:46:08.311Z,20.12
2023-02-21T20:48:36.125Z,20.13
2023-02-21T20:51:02.752Z,20.12
2023-02-21T20:53:29.249Z,20.12
2023-02-21T20:55:56.031Z,20.12
2023-02-21T20:58:23.181Z,20.12
2023-02-21T21:00:53.283Z,20.11
2023-02-21T21:03:19.867Z,20.12
2023-02-21T21:05:48.123Z,20.12
2023-02-21T21:08:14.779Z,20.12
2023-02-21T21:10:42.328Z,20.12
2023-02-21T21:13:08.896Z,20.12
2023-02-21T21:15:35.430Z,20.12
2023-02-21T21:18:02.018Z,20.09
2023-02-21T21:20:28.554Z,20.11
2023-02-21T21:22:55.058Z,20.11
2023-02-21T21:25:22.683Z,20.11
2023-02-21T21:27:49.395Z,20.10
2023-02-21T21:30:19.771Z,20.11
2023-02-21T21:32:46.604Z,20.11
2023-02-21T21:35:16.923Z,20.11
2023-02-21T21:37:43.632Z,20.11
2023-02-21T21:40:16.737Z,20.11
2023-02-21T21:42:44.604Z,20.10
2023-02-21T21:45:18.399Z,20.10
2023-02-21T21:47:45.946Z,20.10
2023-02-21T21:50:15.595Z,20.10
2023-02-21T21:52:48.322Z,20.10
2023-02-21T21:55:18.951Z,20.10
2023-02-21T21:57:45.476Z,20.12
2023-02-21T22:00:21.641Z,20.15
2023-02-21T22:02:58.239Z,20.17
2023-02-21T22:05:30.374Z,20.19
2023-02-21T22:07:57.454Z,20.21
2023-02-21T22:10:25.049Z,20.23
2023-02-21T22:12:53.156Z,20.27
2023-02-21T22:15:20.816Z,20.28
2023-02-21T22:18:03.985Z,20.28
2023-02-21T22:20:36.020Z,20.27
2023-02-21T22:23:05.504Z,20.28
2023-02-21T22:25:32.986Z,20.28
2023-02-21T22:28:02.550Z,20.27
2023-02-21T22:30:29.074Z,20.28
2023-02-21T22:32:55.564Z,20.29
2023-02-21T22:35:22.056Z,20.26
2023-02-21T22:37:52.543Z,20.20
2023-02-21T22:40:24.231Z,20.16
2023-02-21T22:42:55.195Z,20.11
2023-02-21T22:45:22.531Z,20.07
2023-02-21T22:47:49.917Z,20.04
2023-02-21T22:50:20.412Z,20.00
2023-02-21T22:52:51.132Z,19.98
2023-02-21T22:55:17.643Z,19.95
2023-02-21T22:57:44.185Z,19.93
2023-02-21T23:00:19.592Z,19.90
2023-02-21T23:02:46.805Z,19.90
2023-02-21T23:05:14.827Z,19.87
2023-02-21T23:07:41.341Z,19.85
2023-02-21T23:10:16.498Z,19.86
2023-02-21T23:12:44.094Z,19.83
2023-02-21T23:15:12.195Z,19.80
2023-02-21T23:17:38.622Z,19.79
2023-02-21T23:20:15.617Z,19.78
2023-02-21T23:22:46.162Z,19.76
2023-02-21T23:25:19.909Z,19.74
2023-02-21T23:27:47.135Z,19.72
2023-02-21T23:30:14.085Z,19.70
2023-02-21T23:32:40.527Z,19.69
2023-02-21T23:35:08.152Z,19.66
2023-02-21T23:37:42.854Z,19.64
2023-02-21T23:40:17.236Z,19.64
2023-02-21T23:42:44.610Z,19.61
2023-02-21T23:45:11.707Z,19.60
2023-02-21T23:47:39.259Z,19.57
2023-02-21T23:50:07.654Z,19.58
2023-02-21T23:52:34.290Z,19.55
2023-02-21T23:55:00.697Z,19.53
2023-02-21T23:57:27.374Z,19.54
2023-02-21T23:59:53.750Z,19.52
